sensor_id;sensor_type;location;lat;lon;timestamp;pressure;altitude;pressure_sealevel;temperature;humidity
12203;BME280;6164;42.178;24.622;2023-02-03T00:02:10;99889.06;;;4.07;100.00
12203;BME280;6164;42.178;24.622;2023-02-03T00:04:37;99883.81;;;4.18;100.00
12203;BME280;6164;42.178;24.622;2023-02-03T00:07:03;99886.16;;;4.21;100.00
12203;BME280;6164;42.178;24.622;2023-02-03T00:09:31;99891.03;;;4.25;100.00
12203;BME280;6164;42.178;24.622;2023-02-03T00:11:58;99886.63;;;4.26;100.00
12203;BME280;6164;42.178;24.622;2023-02-03T00:14:24;99886.50;;;4.27;100.00
12203;BME280;6164;42.178;24.622;2023-02-03T00:16:51;99902.81;;;4.20;100.00
12203;BME280;6164;42.178;24.622;2023-02-03T00:19:17;99883.94;;;4.16;100.00
12203;BME280;6164;42.178;24.622;2023-02-03T00:21:44;99878.09;;;4.24;100.00
12203;BME280;6164;42.178;24.622;2023-02-03T00:24:10;99881.78;;;4.21;100.00
12203;BME280;6164;42.178;24.622;2023-02-03T00:26:40;99885.47;;;4.30;100.00
12203;BME280;6164;42.178;24.622;2023-02-03T00:29:07;99879.25;;;4.31;100.00
12203;BME280;6164;42.178;24.622;2023-02-03T00:31:34;99887.22;;;4.29;100.00
12203;BME280;6164;42.178;24.622;2023-02-03T00:34:00;99891.50;;;4.30;100.00
12203;BME280;6164;42.178;24.622;2023-02-03T00:36:27;99898.50;;;4.41;100.00
12203;BME280;6164;42.178;24.622;2023-02-03T00:38:53;99903.97;;;4.38;100.00
12203;BME280;6164;42.178;24.622;2023-02-03T00:41:20;99904.69;;;4.40;100.00
12203;BME280;6164;42.178;24.622;2023-02-03T00:43:48;99895.88;;;4.41;100.00
12203;BME280;6164;42.178;24.622;2023-02-03T00:46:14;99910.25;;;4.46;100.00
12203;BME280;6164;42.178;24.622;2023-02-03T00:48:41;99914.53;;;4.47;100.00
12203;BME280;6164;42.178;24.622;2023-02-03T00:51:08;99910.47;;;4.43;100.00
12203;BME280;6164;42.178;24.622;2023-02-03T00:53:34;99907.75;;;4.45;100.00
12203;BME280;6164;42.178;24.622;2023-02-03T00:56:00;99910.38;;;4.45;100.00
12203;BME280;6164;42.178;24.622;2023-02-03T00:58:27;99934.00;;;4.43;100.00
12203;BME280;6164;42.178;24.622;2023-02-03T01:00:55;99931.75;;;4.50;100.00
12203;BME280;6164;42.178;24.622;2023-02-03T01:03:22;99924.84;;;4.49;100.00
12203;BME280;6164;42.178;24.622;2023-02-03T01:05:48;99933.41;;;4.51;100.00
12203;BME280;6164;42.178;24.622;2023-02-03T01:08:15;99934.38;;;4.50;100.00
12203;BME280;6164;42.178;24.622;2023-02-03T01:10:41;99931.63;;;4.51;100.00
12203;BME280;6164;42.178;24.622;2023-02-03T01:13:08;99933.41;;;4.51;100.00
12203;BME280;6164;42.178;24.622;2023-02-03T01:15:34;99928.44;;;4.48;100.00
12203;BME280;6164;42.178;24.622;2023-02-03T01:18:02;99919.16;;;4.44;100.00
12203;BME280;6164;42.178;24.622;2023-02-03T01:20:29;99916.28;;;4.47;100.00
12203;BME280;6164;42.178;24.622;2023-02-03T01:22:56;99930.53;;;4.54;100.00
12203;BME280;6164;42.178;24.622;2023-02-03T01:25:22;99931.50;;;4.53;100.00
12203;BME280;6164;42.178;24.622;2023-02-03T01:27:48;99933.16;;;4.54;100.00
12203;BME280;6164;42.178;24.622;2023-02-03T01:30:15;99937.09;;;4.59;100.00
12203;BME280;6164;42.178;24.622;2023-02-03T01:32:42;99939.22;;;4.54;100.00
12203;BME280;6164;42.178;24.622;2023-02-03T01:35:09;99948.13;;;4.52;100.00
12203;BME280;6164;42.178;24.622;2023-02-03T01:37:36;99955.38;;;4.48;100.00
12203;BME280;6164;42.178;24.622;2023-02-03T01:40:03;99951.94;;;4.59;100.00
12203;BME280;6164;42.178;24.622;2023-02-03T01:42:31;99940.75;;;4.57;100.00
12203;BME280;6164;42.178;24.622;2023-02-03T01:44:57;99937.78;;;4.61;100.00
12203;BME280;6164;42.178;24.622;2023-02-03T01:47:26;99942.09;;;4.51;100.00
12203;BME280;6164;42.178;24.622;2023-02-03T01:49:55;99934.25;;;4.51;100.00
12203;BME280;6164;42.178;24.622;2023-02-03T01:52:24;99937.69;;;4.52;100.00
12203;BME280;6164;42.178;24.622;2023-02-03T01:54:52;99947.78;;;4.56;100.00
12203;BME280;6164;42.178;24.622;2023-02-03T01:57:21;99948.25;;;4.50;100.00
12203;BME280;6164;42.178;24.622;2023-02-03T01:59:48;99942.44;;;4.47;100.00
12203;BME280;6164;42.178;24.622;2023-02-03T02:02:15;99955.63;;;4.45;100.00
12203;BME280;6164;42.178;24.622;2023-02-03T02:04:45;99961.34;;;4.39;100.00
12203;BME280;6164;42.178;24.622;2023-02-03T02:07:15;99952.41;;;4.42;100.00
12203;BME280;6164;42.178;24.622;2023-02-03T02:09:43;99945.28;;;4.44;100.00
12203;BME280;6164;42.178;24.622;2023-02-03T02:12:11;99954.22;;;4.41;100.00
12203;BME280;6164;42.178;24.622;2023-02-03T02:14:37;99970.16;;;4.38;100.00
12203;BME280;6164;42.178;24.622;2023-02-03T02:17:05;99965.72;;;4.39;100.00
12203;BME280;6164;42.178;24.622;2023-02-03T02:22:21;99968.59;;;4.36;100.00
12203;BME280;6164;42.178;24.622;2023-02-03T02:24:58;99975.94;;;4.42;100.00
12203;BME280;6164;42.178;24.622;2023-02-03T02:30:27;99975.47;;;4.37;100.00
12203;BME280;6164;42.178;24.622;2023-02-03T02:33:02;99974.56;;;4.27;100.00
12203;BME280;6164;42.178;24.622;2023-02-03T02:35:36;99988.06;;;4.21;100.00
12203;BME280;6164;42.178;24.622;2023-02-03T02:38:11;99992.13;;;4.25;100.00
12203;BME280;6164;42.178;24.622;2023-02-03T02:40:41;100000.31;;;4.31;100.00
12203;BME280;6164;42.178;24.622;2023-02-03T02:43:16;100004.00;;;4.29;100.00
12203;BME280;6164;42.178;24.622;2023-02-03T02:45:44;100002.47;;;4.26;100.00
12203;BME280;6164;42.178;24.622;2023-02-03T02:48:14;100009.09;;;4.30;100.00
12203;BME280;6164;42.178;24.622;2023-02-03T02:50:44;100019.56;;;4.30;100.00
12203;BME280;6164;42.178;24.622;2023-02-03T02:53:11;100023.47;;;4.36;100.00
12203;BME280;6164;42.178;24.622;2023-02-03T02:55:40;100016.94;;;4.30;100.00
12203;BME280;6164;42.178;24.622;2023-02-03T02:58:08;100016.00;;;4.31;100.00
12203;BME280;6164;42.178;24.622;2023-02-03T03:00:36;100017.19;;;4.27;100.00
12203;BME280;6164;42.178;24.622;2023-02-03T03:03:09;100022.03;;;4.32;100.00
12203;BME280;6164;42.178;24.622;2023-02-03T03:05:38;100024.22;;;4.27;100.00
12203;BME280;6164;42.178;24.622;2023-02-03T03:08:06;100028.34;;;4.29;100.00
12203;BME280;6164;42.178;24.622;2023-02-03T03:10:34;100032.75;;;4.18;100.00
12203;BME280;6164;42.178;24.622;2023-02-03T03:13:03;100027.16;;;4.22;100.00
12203;BME280;6164;42.178;24.622;2023-02-03T03:15:31;100026.06;;;4.14;100.00
12203;BME280;6164;42.178;24.622;2023-02-03T03:18:00;100034.75;;;4.14;100.00
12203;BME280;6164;42.178;24.622;2023-02-03T03:20:30;100028.69;;;4.14;100.00
12203;BME280;6164;42.178;24.622;2023-02-03T03:23:00;100034.25;;;4.09;100.00
12203;BME280;6164;42.178;24.622;2023-02-03T03:25:30;100039.72;;;4.06;100.00
12203;BME280;6164;42.178;24.622;2023-02-03T03:28:00;100045.44;;;4.00;100.00
12203;BME280;6164;42.178;24.622;2023-02-03T03:30:29;100060.84;;;3.92;100.00
12203;BME280;6164;42.178;24.622;2023-02-03T03:32:58;100053.00;;;3.92;100.00
12203;BME280;6164;42.178;24.622;2023-02-03T03:35:27;100059.66;;;3.96;100.00
12203;BME280;6164;42.178;24.622;2023-02-03T03:37:55;100056.06;;;3.86;100.00
12203;BME280;6164;42.178;24.622;2023-02-03T03:40:25;100057.03;;;3.85;100.00
12203;BME280;6164;42.178;24.622;2023-02-03T03:42:54;100053.81;;;3.81;100.00
12203;BME280;6164;42.178;24.622;2023-02-03T03:45:24;100042.88;;;3.76;100.00
12203;BME280;6164;42.178;24.622;2023-02-03T03:47:52;100046.31;;;3.77;100.00
12203;BME280;6164;42.178;24.622;2023-02-03T03:50:22;100047.75;;;3.81;100.00
12203;BME280;6164;42.178;24.622;2023-02-03T03:52:50;100048.31;;;3.73;100.00
12203;BME280;6164;42.178;24.622;2023-02-03T03:55:18;100047.25;;;3.76;100.00
12203;BME280;6164;42.178;24.622;2023-02-03T03:57:47;100059.31;;;3.66;100.00
12203;BME280;6164;42.178;24.622;2023-02-03T04:00:16;100061.13;;;3.65;100.00
12203;BME280;6164;42.178;24.622;2023-02-03T04:02:45;100062.75;;;3.55;100.00
12203;BME280;6164;42.178;24.622;2023-02-03T04:05:15;100059.78;;;3.60;100.00
12203;BME280;6164;42.178;24.622;2023-02-03T04:07:42;100061.56;;;3.59;100.00
12203;BME280;6164;42.178;24.622;2023-02-03T04:10:13;100060.28;;;3.65;100.00
12203;BME280;6164;42.178;24.622;2023-02-03T04:12:41;100062.88;;;3.65;100.00
12203;BME280;6164;42.178;24.622;2023-02-03T04:15:09;100063.50;;;3.68;100.00
12203;BME280;6164;42.178;24.622;2023-02-03T04:17:36;100063.53;;;3.79;100.00
12203;BME280;6164;42.178;24.622;2023-02-03T04:20:02;100062.00;;;3.77;100.00
12203;BME280;6164;42.178;24.622;2023-02-03T04:22:29;100066.50;;;3.75;100.00
12203;BME280;6164;42.178;24.622;2023-02-03T04:24:55;100067.44;;;3.74;100.00
12203;BME280;6164;42.178;24.622;2023-02-03T04:27:23;100080.50;;;3.74;100.00
12203;BME280;6164;42.178;24.622;2023-02-03T04:29:49;100079.69;;;3.84;100.00
12203;BME280;6164;42.178;24.622;2023-02-03T04:32:18;100088.00;;;3.89;100.00
12203;BME280;6164;42.178;24.622;2023-02-03T04:34:44;100081.19;;;4.11;100.00
12203;BME280;6164;42.178;24.622;2023-02-03T04:37:11;100086.88;;;4.16;100.00
12203;BME280;6164;42.178;24.622;2023-02-03T04:39:37;100089.50;;;4.16;100.00
12203;BME280;6164;42.178;24.622;2023-02-03T04:42:04;100084.88;;;4.19;100.00
12203;BME280;6164;42.178;24.622;2023-02-03T04:44:30;100088.94;;;4.23;100.00
12203;BME280;6164;42.178;24.622;2023-02-03T04:46:57;100083.59;;;4.25;100.00
12203;BME280;6164;42.178;24.622;2023-02-03T04:49:25;100079.28;;;4.24;100.00
12203;BME280;6164;42.178;24.622;2023-02-03T04:51:51;100075.28;;;4.20;100.00
12203;BME280;6164;42.178;24.622;2023-02-03T04:54:18;100075.72;;;4.14;100.00
12203;BME280;6164;42.178;24.622;2023-02-03T04:56:44;100081.78;;;4.14;100.00
12203;BME280;6164;42.178;24.622;2023-02-03T04:59:11;100077.03;;;4.08;100.00
12203;BME280;6164;42.178;24.622;2023-02-03T05:01:37;100074.72;;;3.92;100.00
12203;BME280;6164;42.178;24.622;2023-02-03T05:04:04;100088.00;;;3.78;100.00
12203;BME280;6164;42.178;24.622;2023-02-03T05:06:32;100085.22;;;3.69;100.00
12203;BME280;6164;42.178;24.622;2023-02-03T05:08:58;100093.59;;;3.61;100.00
12203;BME280;6164;42.178;24.622;2023-02-03T05:11:25;100097.28;;;3.59;100.00
12203;BME280;6164;42.178;24.622;2023-02-03T05:13:52;100099.41;;;3.54;100.00
12203;BME280;6164;42.178;24.622;2023-02-03T05:16:19;100097.81;;;3.51;100.00
12203;BME280;6164;42.178;24.622;2023-02-03T05:18:45;100103.88;;;3.52;100.00
12203;BME280;6164;42.178;24.622;2023-02-03T05:21:12;100114.66;;;3.47;100.00
12203;BME280;6164;42.178;24.622;2023-02-03T05:23:40;100111.22;;;3.47;100.00
12203;BME280;6164;42.178;24.622;2023-02-03T05:26:06;100104.88;;;3.38;100.00
12203;BME280;6164;42.178;24.622;2023-02-03T05:28:33;100107.00;;;3.33;100.00
12203;BME280;6164;42.178;24.622;2023-02-03T05:30:59;100109.09;;;3.28;100.00
12203;BME280;6164;42.178;24.622;2023-02-03T05:33:26;100107.16;;;3.19;100.00
12203;BME280;6164;42.178;24.622;2023-02-03T05:35:53;100106.75;;;3.13;100.00
12203;BME280;6164;42.178;24.622;2023-02-03T05:38:19;100111.06;;;3.01;100.00
12203;BME280;6164;42.178;24.622;2023-02-03T05:40:47;100107.94;;;2.96;100.00
12203;BME280;6164;42.178;24.622;2023-02-03T05:43:31;100117.66;;;2.94;100.00
12203;BME280;6164;42.178;24.622;2023-02-03T05:45:58;100134.31;;;2.92;100.00
12203;BME280;6164;42.178;24.622;2023-02-03T05:48:25;100126.72;;;2.89;100.00
12203;BME280;6164;42.178;24.622;2023-02-03T05:50:52;100118.69;;;2.92;100.00
12203;BME280;6164;42.178;24.622;2023-02-03T05:53:18;100134.66;;;3.00;100.00
12203;BME280;6164;42.178;24.622;2023-02-03T05:55:45;100144.31;;;3.10;100.00
12203;BME280;6164;42.178;24.622;2023-02-03T05:58:12;100132.41;;;3.19;100.00
12203;BME280;6164;42.178;24.622;2023-02-03T06:00:39;100142.91;;;3.30;100.00
12203;BME280;6164;42.178;24.622;2023-02-03T06:03:05;100142.03;;;3.42;100.00
12203;BME280;6164;42.178;24.622;2023-02-03T06:05:32;100143.44;;;3.58;100.00
12203;BME280;6164;42.178;24.622;2023-02-03T06:07:59;100139.22;;;3.68;100.00
12203;BME280;6164;42.178;24.622;2023-02-03T06:10:26;100140.44;;;3.75;100.00
12203;BME280;6164;42.178;24.622;2023-02-03T06:12:52;100138.41;;;3.79;100.00
12203;BME280;6164;42.178;24.622;2023-02-03T06:15:20;100151.66;;;3.88;100.00
12203;BME280;6164;42.178;24.622;2023-02-03T06:17:47;100157.50;;;3.92;100.00
12203;BME280;6164;42.178;24.622;2023-02-03T06:20:15;100161.66;;;3.94;100.00
12203;BME280;6164;42.178;24.622;2023-02-03T06:22:41;100172.13;;;4.05;100.00
12203;BME280;6164;42.178;24.622;2023-02-03T06:25:08;100174.63;;;4.07;100.00
12203;BME280;6164;42.178;24.622;2023-02-03T06:27:35;100175.00;;;4.14;100.00
12203;BME280;6164;42.178;24.622;2023-02-03T06:30:02;100179.19;;;4.16;100.00
12203;BME280;6164;42.178;24.622;2023-02-03T06:32:30;100189.16;;;4.22;100.00
12203;BME280;6164;42.178;24.622;2023-02-03T06:34:57;100194.78;;;4.29;100.00
12203;BME280;6164;42.178;24.622;2023-02-03T06:37:23;100190.53;;;4.39;100.00
12203;BME280;6164;42.178;24.622;2023-02-03T06:39:50;100202.56;;;4.41;100.00
12203;BME280;6164;42.178;24.622;2023-02-03T06:42:16;100205.16;;;4.41;100.00
12203;BME280;6164;42.178;24.622;2023-02-03T06:44:43;100210.78;;;4.48;100.00
12203;BME280;6164;42.178;24.622;2023-02-03T06:47:09;100216.88;;;4.59;100.00
12203;BME280;6164;42.178;24.622;2023-02-03T06:49:37;100218.41;;;4.73;100.00
12203;BME280;6164;42.178;24.622;2023-02-03T06:52:03;100225.94;;;4.88;100.00
12203;BME280;6164;42.178;24.622;2023-02-03T06:54:30;100223.31;;;4.99;100.00
12203;BME280;6164;42.178;24.622;2023-02-03T06:56:56;100234.75;;;5.09;100.00
12203;BME280;6164;42.178;24.622;2023-02-03T06:59:23;100238.69;;;5.15;100.00
12203;BME280;6164;42.178;24.622;2023-02-03T07:01:49;100230.00;;;5.14;100.00
12203;BME280;6164;42.178;24.622;2023-02-03T07:04:17;100231.91;;;5.12;100.00
12203;BME280;6164;42.178;24.622;2023-02-03T07:06:45;100243.09;;;5.14;100.00
12203;BME280;6164;42.178;24.622;2023-02-03T07:09:11;100229.88;;;5.05;100.00
12203;BME280;6164;42.178;24.622;2023-02-03T07:11:38;100237.59;;;5.06;100.00
12203;BME280;6164;42.178;24.622;2023-02-03T07:14:04;100240.34;;;5.05;100.00
12203;BME280;6164;42.178;24.622;2023-02-03T07:16:31;100247.59;;;5.01;100.00
12203;BME280;6164;42.178;24.622;2023-02-03T07:18:58;100249.28;;;5.02;100.00
12203;BME280;6164;42.178;24.622;2023-02-03T07:21:25;100243.56;;;5.08;100.00
12203;BME280;6164;42.178;24.622;2023-02-03T07:23:53;100250.56;;;5.19;100.00
12203;BME280;6164;42.178;24.622;2023-02-03T07:26:19;100253.22;;;5.30;100.00
12203;BME280;6164;42.178;24.622;2023-02-03T07:28:47;100262.97;;;5.39;100.00
12203;BME280;6164;42.178;24.622;2023-02-03T07:31:13;100258.69;;;5.49;100.00
12203;BME280;6164;42.178;24.622;2023-02-03T07:33:40;100257.50;;;5.53;100.00
12203;BME280;6164;42.178;24.622;2023-02-03T07:36:07;100255.81;;;5.52;99.84
12203;BME280;6164;42.178;24.622;2023-02-03T07:38:33;100246.44;;;5.50;100.00
12203;BME280;6164;42.178;24.622;2023-02-03T07:41:03;100241.91;;;5.52;99.27
12203;BME280;6164;42.178;24.622;2023-02-03T07:43:30;100252.00;;;5.67;99.79
12203;BME280;6164;42.178;24.622;2023-02-03T07:45:56;100245.69;;;5.70;97.95
12203;BME280;6164;42.178;24.622;2023-02-03T07:48:23;100242.31;;;5.79;98.10
12203;BME280;6164;42.178;24.622;2023-02-03T07:50:49;100248.78;;;5.86;97.87
12203;BME280;6164;42.178;24.622;2023-02-03T07:53:16;100251.50;;;5.95;96.54
12203;BME280;6164;42.178;24.622;2023-02-03T07:55:43;100268.66;;;5.99;95.25
12203;BME280;6164;42.178;24.622;2023-02-03T07:58:11;100255.13;;;6.15;97.13
12203;BME280;6164;42.178;24.622;2023-02-03T08:00:37;100257.41;;;6.19;95.81
12203;BME280;6164;42.178;24.622;2023-02-03T08:03:04;100252.03;;;6.21;95.87
12203;BME280;6164;42.178;24.622;2023-02-03T08:05:30;100268.31;;;6.24;94.58
12203;BME280;6164;42.178;24.622;2023-02-03T08:07:57;100273.91;;;6.31;93.96
12203;BME280;6164;42.178;24.622;2023-02-03T08:10:24;100282.00;;;6.39;93.69
12203;BME280;6164;42.178;24.622;2023-02-03T08:12:51;100268.09;;;6.48;92.13
12203;BME280;6164;42.178;24.622;2023-02-03T08:15:19;100287.78;;;6.53;90.49
12203;BME280;6164;42.178;24.622;2023-02-03T08:17:46;100288.28;;;6.68;91.11
12203;BME280;6164;42.178;24.622;2023-02-03T08:20:13;100291.50;;;6.72;89.77
12203;BME280;6164;42.178;24.622;2023-02-03T08:22:40;100297.13;;;6.67;87.74
12203;BME280;6164;42.178;24.622;2023-02-03T08:25:07;100295.03;;;6.82;89.12
12203;BME280;6164;42.178;24.622;2023-02-03T08:27:34;100299.06;;;7.06;90.47
12203;BME280;6164;42.178;24.622;2023-02-03T08:30:00;100308.41;;;6.99;85.82
12203;BME280;6164;42.178;24.622;2023-02-03T08:32:28;100316.41;;;6.98;84.93
12203;BME280;6164;42.178;24.622;2023-02-03T08:34:54;100311.28;;;6.96;83.84
12203;BME280;6164;42.178;24.622;2023-02-03T08:37:21;100321.41;;;7.01;82.61
12203;BME280;6164;42.178;24.622;2023-02-03T08:39:48;100342.59;;;7.09;81.83
12203;BME280;6164;42.178;24.622;2023-02-03T08:42:15;100319.59;;;7.22;82.31
12203;BME280;6164;42.178;24.622;2023-02-03T08:44:43;100346.69;;;7.22;81.04
12203;BME280;6164;42.178;24.622;2023-02-03T08:47:10;100344.25;;;7.30;79.00
12203;BME280;6164;42.178;24.622;2023-02-03T08:49:38;100348.44;;;7.33;77.27
12203;BME280;6164;42.178;24.622;2023-02-03T08:52:05;100328.16;;;7.44;77.41
12203;BME280;6164;42.178;24.622;2023-02-03T08:54:31;100326.13;;;7.48;78.12
12203;BME280;6164;42.178;24.622;2023-02-03T08:56:58;100335.16;;;7.34;77.74
12203;BME280;6164;42.178;24.622;2023-02-03T08:59:24;100313.03;;;7.37;78.06
12203;BME280;6164;42.178;24.622;2023-02-03T09:01:51;100348.28;;;7.34;75.40
12203;BME280;6164;42.178;24.622;2023-02-03T09:04:18;100348.16;;;7.36;75.37
12203;BME280;6164;42.178;24.622;2023-02-03T09:06:50;100337.31;;;7.50;75.37
12203;BME280;6164;42.178;24.622;2023-02-03T09:09:18;100339.66;;;7.53;74.41
12203;BME280;6164;42.178;24.622;2023-02-03T09:11:45;100345.31;;;7.48;73.91
12203;BME280;6164;42.178;24.622;2023-02-03T09:14:12;100360.31;;;7.57;73.21
12203;BME280;6164;42.178;24.622;2023-02-03T09:16:38;100376.66;;;7.61;71.42
12203;BME280;6164;42.178;24.622;2023-02-03T09:19:05;100397.34;;;7.34;69.58
12203;BME280;6164;42.178;24.622;2023-02-03T09:21:31;100390.63;;;7.20;69.56
12203;BME280;6164;42.178;24.622;2023-02-03T09:24:00;100413.31;;;7.21;69.15
12203;BME280;6164;42.178;24.622;2023-02-03T09:26:27;100403.91;;;7.39;70.43
12203;BME280;6164;42.178;24.622;2023-02-03T09:28:53;100374.66;;;7.53;70.86
12203;BME280;6164;42.178;24.622;2023-02-03T09:31:20;100389.41;;;7.45;69.76
12203;BME280;6164;42.178;24.622;2023-02-03T09:33:46;100407.13;;;7.43;67.83
12203;BME280;6164;42.178;24.622;2023-02-03T09:36:13;100412.03;;;7.57;67.89
12203;BME280;6164;42.178;24.622;2023-02-03T09:38:39;100398.47;;;7.82;68.75
12203;BME280;6164;42.178;24.622;2023-02-03T09:41:10;100439.28;;;7.86;64.82
12203;BME280;6164;42.178;24.622;2023-02-03T09:43:39;100458.13;;;7.61;63.96
12203;BME280;6164;42.178;24.622;2023-02-03T09:46:10;100429.44;;;7.78;66.09
12203;BME280;6164;42.178;24.622;2023-02-03T09:48:38;100430.91;;;7.92;66.76
12203;BME280;6164;42.178;24.622;2023-02-03T09:51:12;100433.69;;;8.00;64.96
12203;BME280;6164;42.178;24.622;2023-02-03T09:53:43;100439.09;;;8.29;65.05
12203;BME280;6164;42.178;24.622;2023-02-03T09:56:17;100444.44;;;8.57;64.69
12203;BME280;6164;42.178;24.622;2023-02-03T09:58:47;100467.56;;;8.54;61.77
12203;BME280;6164;42.178;24.622;2023-02-03T10:01:14;100472.97;;;8.52;62.33
12203;BME280;6164;42.178;24.622;2023-02-03T10:03:44;100463.78;;;8.37;62.27
12203;BME280;6164;42.178;24.622;2023-02-03T10:06:15;100462.28;;;8.44;62.92
12203;BME280;6164;42.178;24.622;2023-02-03T10:08:50;100466.31;;;8.48;62.26
12203;BME280;6164;42.178;24.622;2023-02-03T10:11:21;100442.38;;;8.61;62.84
12203;BME280;6164;42.178;24.622;2023-02-03T10:13:53;100430.09;;;8.80;61.80
12203;BME280;6164;42.178;24.622;2023-02-03T10:16:27;100457.50;;;8.68;60.62
12203;BME280;6164;42.178;24.622;2023-02-03T10:19:00;100485.72;;;8.57;59.82
12203;BME280;6164;42.178;24.622;2023-02-03T10:21:31;100498.72;;;8.49;59.61
12203;BME280;6164;42.178;24.622;2023-02-03T10:23:59;100481.84;;;8.51;59.79
12203;BME280;6164;42.178;24.622;2023-02-03T10:26:28;100473.25;;;8.59;60.89
12203;BME280;6164;42.178;24.622;2023-02-03T10:28:55;100477.28;;;8.53;59.90
12203;BME280;6164;42.178;24.622;2023-02-03T10:31:22;100511.59;;;8.52;58.83
12203;BME280;6164;42.178;24.622;2023-02-03T10:33:53;100528.59;;;8.38;57.76
12203;BME280;6164;42.178;24.622;2023-02-03T10:36:27;100504.09;;;8.38;58.86
12203;BME280;6164;42.178;24.622;2023-02-03T10:38:57;100473.25;;;8.49;60.37
12203;BME280;6164;42.178;24.622;2023-02-03T10:41:25;100471.03;;;8.45;58.60
12203;BME280;6164;42.178;24.622;2023-02-03T10:43:55;100473.53;;;8.56;59.73
12203;BME280;6164;42.178;24.622;2023-02-03T10:46:25;100480.09;;;8.80;58.87
12203;BME280;6164;42.178;24.622;2023-02-03T10:48:52;100491.84;;;8.67;59.09
12203;BME280;6164;42.178;24.622;2023-02-03T10:51:20;100484.03;;;8.46;58.26
12203;BME280;6164;42.178;24.622;2023-02-03T10:53:47;100473.25;;;8.49;58.71
12203;BME280;6164;42.178;24.622;2023-02-03T10:56:16;100471.06;;;8.73;59.33
12203;BME280;6164;42.178;24.622;2023-02-03T10:58:45;100463.44;;;8.51;58.80
12203;BME280;6164;42.178;24.622;2023-02-03T11:01:15;100446.16;;;8.68;59.65
12203;BME280;6164;42.178;24.622;2023-02-03T11:03:42;100464.84;;;8.65;58.15
12203;BME280;6164;42.178;24.622;2023-02-03T11:06:10;100457.47;;;8.59;58.05
12203;BME280;6164;42.178;24.622;2023-02-03T11:08:38;100479.53;;;8.67;57.52
12203;BME280;6164;42.178;24.622;2023-02-03T11:11:06;100476.75;;;8.59;57.38
12203;BME280;6164;42.178;24.622;2023-02-03T11:13:33;100496.53;;;8.63;56.10
12203;BME280;6164;42.178;24.622;2023-02-03T11:16:00;100482.88;;;8.69;57.72
12203;BME280;6164;42.178;24.622;2023-02-03T11:18:36;100482.03;;;8.78;56.70
12203;BME280;6164;42.178;24.622;2023-02-03T11:21:07;100492.00;;;8.75;55.93
12203;BME280;6164;42.178;24.622;2023-02-03T11:23:34;100485.81;;;8.85;56.43
12203;BME280;6164;42.178;24.622;2023-02-03T11:26:08;100514.88;;;8.74;55.45
12203;BME280;6164;42.178;24.622;2023-02-03T11:28:35;100504.34;;;8.65;56.25
12203;BME280;6164;42.178;24.622;2023-02-03T11:31:02;100494.19;;;8.70;55.42
12203;BME280;6164;42.178;24.622;2023-02-03T11:33:28;100512.53;;;8.71;55.54
12203;BME280;6164;42.178;24.622;2023-02-03T11:35:57;100496.91;;;8.89;55.88
12203;BME280;6164;42.178;24.622;2023-02-03T11:38:28;100497.91;;;9.26;55.50
12203;BME280;6164;42.178;24.622;2023-02-03T11:40:57;100526.50;;;9.30;53.84
12203;BME280;6164;42.178;24.622;2023-02-03T11:43:24;100553.38;;;9.34;52.67
12203;BME280;6164;42.178;24.622;2023-02-03T11:45:51;100569.75;;;9.38;52.18
12203;BME280;6164;42.178;24.622;2023-02-03T11:48:24;100575.56;;;9.12;51.31
12203;BME280;6164;42.178;24.622;2023-02-03T11:50:55;100594.19;;;8.90;51.44
12203;BME280;6164;42.178;24.622;2023-02-03T11:53:28;100580.91;;;9.01;52.08
12203;BME280;6164;42.178;24.622;2023-02-03T11:56:01;100584.69;;;9.08;51.47
12203;BME280;6164;42.178;24.622;2023-02-03T11:58:40;100590.38;;;9.13;51.71
12203;BME280;6164;42.178;24.622;2023-02-03T12:01:11;100592.00;;;8.95;51.64
12203;BME280;6164;42.178;24.622;2023-02-03T12:03:52;100607.91;;;8.84;50.70
12203;BME280;6164;42.178;24.622;2023-02-03T12:06:26;100585.69;;;8.77;51.41
12203;BME280;6164;42.178;24.622;2023-02-03T12:09:00;100562.16;;;8.85;52.93
12203;BME280;6164;42.178;24.622;2023-02-03T12:11:32;100569.19;;;8.75;52.11
12203;BME280;6164;42.178;24.622;2023-02-03T12:14:09;100559.94;;;8.81;51.53
12203;BME280;6164;42.178;24.622;2023-02-03T12:19:25;100567.75;;;8.62;50.65
12203;BME280;6164;42.178;24.622;2023-02-03T12:22:02;100574.31;;;8.77;51.29
12203;BME280;6164;42.178;24.622;2023-02-03T12:24:36;100558.75;;;8.94;50.36
12203;BME280;6164;42.178;24.622;2023-02-03T12:27:09;100583.25;;;8.95;49.17
12203;BME280;6164;42.178;24.622;2023-02-03T12:29:38;100581.31;;;8.97;50.25
12203;BME280;6164;42.178;24.622;2023-02-03T12:32:10;100566.38;;;8.97;51.03
12203;BME280;6164;42.178;24.622;2023-02-03T12:34:40;100581.03;;;8.90;50.50
12203;BME280;6164;42.178;24.622;2023-02-03T12:37:13;100572.41;;;8.79;50.62
12203;BME280;6164;42.178;24.622;2023-02-03T12:39:43;100566.44;;;8.77;50.38
12203;BME280;6164;42.178;24.622;2023-02-03T12:42:14;100587.72;;;8.64;49.44
12203;BME280;6164;42.178;24.622;2023-02-03T12:44:43;100591.56;;;8.60;49.42
12203;BME280;6164;42.178;24.622;2023-02-03T12:47:12;100609.41;;;8.57;48.98
12203;BME280;6164;42.178;24.622;2023-02-03T12:49:42;100603.47;;;8.55;49.83
12203;BME280;6164;42.178;24.622;2023-02-03T12:52:13;100599.44;;;8.51;49.39
12203;BME280;6164;42.178;24.622;2023-02-03T12:54:45;100592.25;;;8.53;49.29
12203;BME280;6164;42.178;24.622;2023-02-03T12:57:17;100588.81;;;8.62;49.07
12203;BME280;6164;42.178;24.622;2023-02-03T12:59:53;100588.16;;;8.69;49.08
12203;BME280;6164;42.178;24.622;2023-02-03T13:02:24;100601.91;;;8.73;48.33
12203;BME280;6164;42.178;24.622;2023-02-03T13:04:52;100603.59;;;8.83;49.05
12203;BME280;6164;42.178;24.622;2023-02-03T13:07:21;100573.34;;;9.17;50.15
12203;BME280;6164;42.178;24.622;2023-02-03T13:09:51;100604.84;;;9.19;48.26